Terminal Aerodrome Forecast
Issued by NWS

Home | Current Version | Previous Version | Text Only | Print | Product List | Glossary On
Versions: 1 2 3 4 5 6 7 8 9 10 11 12 13 14 15 16 17
000
FTUS44 KCRP 230500
TAFLRD
TAF
KLRD 230532Z 2306/2406 13008KT P6SM FEW060
     FM231000 13008KT P6SM BKN018
      TEMPO 2310/2314 SCT015
     FM231430 15015KT P6SM SCT035 BKN250
     FM240100 14018G23KT P6SM BKN250=

USA.gov is the U.S. government's official web portal to all federal, state and local government web resources and services.